createdAt,value
2023-04-30T00:09:59.626Z,0.70
2023-04-30T00:12:32.624Z,0.50
2023-04-30T00:33:14.958Z,0.50
2023-04-30T00:41:56.003Z,0.65
2023-04-30T00:44:58.264Z,0.60
2023-04-30T00:55:19.170Z,0.60
2023-04-30T00:55:35.460Z,0.68
2023-04-30T01:09:52.897Z,0.60
2023-04-30T01:17:05.033Z,0.45
2023-04-30T01:19:48.018Z,0.50
2023-04-30T01:22:57.111Z,0.70
2023-04-30T01:26:21.394Z,0.60
2023-04-30T01:28:57.763Z,0.60
2023-04-30T01:31:32.127Z,0.47
2023-04-30T01:39:04.017Z,0.60
2023-04-30T01:41:40.699Z,0.32
2023-04-30T01:52:15.325Z,0.85
2023-04-30T02:02:10.211Z,0.60
2023-04-30T02:17:12.662Z,0.80
2023-04-30T02:25:34.513Z,0.70
2023-04-30T02:31:48.891Z,0.50
2023-04-30T02:36:04.771Z,0.38
2023-04-30T02:41:38.718Z,0.60
2023-04-30T02:49:47.160Z,0.55
2023-04-30T02:56:22.700Z,0.75
2023-04-30T03:08:41.494Z,0.43
2023-04-30T03:15:09.825Z,0.85
2023-04-30T03:24:09.307Z,0.60
2023-04-30T03:26:40.562Z,0.68
2023-04-30T03:34:18.582Z,0.40
2023-04-30T03:40:44.131Z,0.57
2023-04-30T03:44:02.018Z,0.70
2023-04-30T04:04:55.468Z,0.70
2023-04-30T04:08:01.300Z,0.80
2023-04-30T04:10:52.307Z,0.80
2023-04-30T04:28:16.098Z,0.63
2023-04-30T04:36:11.276Z,0.65
2023-04-30T04:49:08.898Z,0.90
2023-04-30T05:00:11.551Z,0.70
2023-04-30T05:05:52.867Z,0.80
2023-04-30T06:21:47.783Z,0.90
2023-04-30T06:26:01.957Z,0.77
2023-04-30T06:40:20.193Z,1.10
2023-04-30T06:43:00.865Z,1.02
2023-04-30T06:45:56.674Z,0.90
2023-04-30T06:48:29.762Z,0.95
2023-04-30T06:52:10.269Z,1.17
2023-04-30T06:55:18.396Z,1.20
2023-04-30T06:58:10.207Z,1.67
2023-04-30T07:01:45.411Z,0.90
2023-04-30T07:04:21.769Z,1.60
2023-04-30T07:07:15.771Z,1.10
2023-04-30T07:13:42.784Z,0.85
2023-04-30T07:16:21.048Z,0.77
2023-04-30T07:19:01.635Z,1.23
2023-04-30T07:21:35.292Z,1.02
2023-04-30T07:24:46.678Z,0.90
2023-04-30T07:28:29.703Z,1.40
2023-04-30T07:31:29.759Z,0.90
2023-04-30T07:47:11.807Z,1.85
2023-04-30T07:53:02.187Z,1.48
2023-04-30T07:53:10.290Z,1.08
2023-04-30T07:56:44.549Z,1.00
2023-04-30T08:00:08.082Z,1.30
2023-04-30T08:07:59.376Z,1.10
2023-04-30T08:10:40.999Z,1.00
2023-04-30T08:13:49.208Z,1.15
2023-04-30T08:16:50.919Z,0.90
2023-04-30T08:22:12.386Z,1.33
2023-04-30T08:25:05.372Z,1.00
2023-04-30T08:31:47.349Z,1.05
2023-04-30T08:51:11.307Z,1.20
2023-04-30T08:57:02.011Z,1.50
2023-04-30T09:03:00.611Z,1.00
2023-04-30T09:05:39.401Z,1.77
2023-04-30T09:09:27.726Z,1.00
2023-04-30T09:11:53.116Z,1.23
2023-04-30T09:14:50.691Z,1.20
2023-04-30T09:25:59.049Z,1.20
2023-04-30T09:28:31.969Z,1.40
2023-04-30T09:31:03.470Z,1.20
2023-04-30T09:38:38.166Z,1.23
2023-04-30T09:45:12.739Z,1.48
2023-04-30T09:56:26.205Z,1.33
2023-04-30T10:12:15.752Z,0.70
2023-04-30T10:14:55.663Z,0.95
2023-04-30T10:17:41.160Z,0.93
2023-04-30T10:20:28.559Z,0.90
2023-04-30T10:23:33.472Z,1.20
2023-04-30T10:26:08.140Z,0.85
2023-04-30T10:29:01.345Z,1.15
2023-04-30T10:31:34.169Z,0.98
2023-04-30T10:34:41.639Z,1.10
2023-04-30T10:37:30.157Z,0.90
2023-04-30T10:40:00.294Z,1.10
2023-04-30T10:42:34.437Z,0.93
2023-04-30T10:45:12.942Z,1.02
2023-04-30T10:48:27.982Z,1.10
2023-04-30T10:51:10.531Z,1.00
2023-04-30T10:53:50.230Z,1.20
2023-04-30T10:56:52.532Z,0.98
2023-04-30T11:04:40.022Z,1.08
2023-04-30T11:12:50.206Z,0.95
2023-04-30T11:16:40.693Z,1.23
2023-04-30T11:24:31.107Z,1.10
2023-04-30T11:27:29.621Z,0.85
2023-04-30T11:30:32.060Z,0.93
2023-04-30T11:33:12.939Z,1.17
2023-04-30T11:35:55.045Z,1.38
2023-04-30T11:38:41.586Z,0.90
2023-04-30T11:49:58.125Z,1.02
2023-04-30T11:54:10.891Z,0.90
2023-04-30T11:56:51.415Z,0.75
2023-04-30T11:59:44.621Z,0.80
2023-04-30T12:02:29.561Z,0.88
2023-04-30T12:05:42.382Z,1.10
2023-04-30T12:08:21.233Z,0.70
2023-04-30T12:10:56.138Z,0.90
2023-04-30T12:13:29.686Z,0.90
2023-04-30T12:16:01.040Z,0.80
2023-04-30T12:18:31.178Z,0.55
2023-04-30T12:21:01.222Z,0.70
2023-04-30T12:23:31.702Z,0.50
2023-04-30T12:26:02.021Z,0.50
2023-04-30T12:28:32.112Z,0.50
2023-04-30T12:31:02.556Z,0.60
2023-04-30T12:33:32.431Z,0.50
2023-04-30T12:35:59.746Z,0.60
2023-04-30T12:38:27.168Z,0.60
2023-04-30T12:40:58.024Z,0.40
2023-04-30T12:43:25.400Z,0.40
2023-04-30T12:46:01.340Z,0.30
2023-04-30T12:48:31.670Z,0.40
2023-04-30T12:51:03.427Z,0.50
2023-04-30T12:53:31.766Z,0.32
2023-04-30T12:56:10.118Z,0.30
2023-04-30T12:58:40.063Z,0.30
2023-04-30T13:01:13.690Z,0.40
2023-04-30T13:03:41.760Z,0.40
2023-04-30T13:06:10.344Z,0.35
2023-04-30T13:08:56.173Z,0.22
2023-04-30T13:12:01.117Z,0.30
2023-04-30T13:14:31.328Z,0.30
2023-04-30T13:17:08.583Z,0.40
2023-04-30T13:20:40.614Z,0.20
2023-04-30T13:24:45.994Z,0.40
2023-04-30T13:28:52.883Z,0.20
2023-04-30T13:34:43.913Z,0.40
2023-04-30T13:41:52.717Z,0.32
2023-04-30T13:50:20.545Z,0.30
2023-04-30T14:06:20.589Z,0.17
2023-04-30T14:10:12.537Z,0.35
2023-04-30T14:12:41.671Z,0.30
2023-04-30T14:15:09.386Z,0.22
2023-04-30T14:18:40.697Z,0.20
2023-04-30T14:21:10.881Z,0.20
2023-04-30T14:23:49.903Z,0.20
2023-04-30T14:26:23.088Z,0.25
2023-04-30T14:29:12.456Z,0.20
2023-04-30T14:31:42.362Z,0.20
2023-04-30T14:35:58.738Z,0.20
2023-04-30T14:42:13.931Z,0.20
2023-04-30T14:45:05.967Z,0.30
2023-04-30T14:47:33.738Z,0.20
2023-04-30T14:50:10.858Z,0.28
2023-04-30T14:53:33.093Z,0.20
2023-04-30T14:56:22.210Z,0.08
2023-04-30T14:58:59.727Z,0.20
2023-04-30T15:01:30.980Z,0.20
2023-04-30T15:04:10.177Z,0.10
2023-04-30T15:07:10.058Z,0.15
2023-04-30T15:11:02.560Z,0.10
2023-04-30T15:13:33.083Z,0.20
2023-04-30T15:16:07.684Z,0.28
2023-04-30T15:18:45.915Z,0.10
2023-04-30T15:22:11.033Z,0.20
2023-04-30T15:29:53.121Z,0.28
2023-04-30T15:32:27.229Z,0.20
2023-04-30T15:34:55.544Z,0.10
2023-04-30T15:42:05.408Z,0.38
2023-04-30T15:45:06.974Z,0.13
2023-04-30T15:48:59.513Z,0.10
2023-04-30T15:51:50.283Z,0.17
2023-04-30T15:54:19.959Z,0.20
2023-04-30T15:56:51.723Z,0.20
2023-04-30T15:59:21.216Z,0.10
2023-04-30T16:05:09.041Z,0.10
2023-04-30T16:07:43.065Z,0.10
2023-04-30T16:17:31.323Z,0.20
2023-04-30T16:20:08.982Z,0.20
2023-04-30T16:22:46.340Z,0.45
2023-04-30T16:25:21.119Z,0.20
2023-04-30T16:27:54.011Z,0.20
2023-04-30T16:30:21.188Z,0.15
2023-04-30T16:33:20.248Z,0.10
2023-04-30T16:35:49.996Z,0.20
2023-04-30T16:38:45.464Z,0.20
2023-04-30T16:44:28.465Z,0.17
2023-04-30T16:47:04.910Z,0.27
2023-04-30T16:50:11.522Z,0.20
2023-04-30T16:57:07.368Z,0.17
2023-04-30T16:59:43.170Z,0.20
2023-04-30T17:02:21.608Z,0.20
2023-04-30T17:04:51.479Z,0.20
2023-04-30T17:07:22.732Z,0.10
2023-04-30T17:09:53.022Z,3.75
2023-04-30T17:12:29.947Z,1.85
2023-04-30T17:14:59.759Z,1.10
2023-04-30T17:17:29.703Z,0.60
2023-04-30T17:20:00.121Z,0.40
2023-04-30T17:22:29.806Z,0.60
2023-04-30T17:25:02.385Z,0.30
2023-04-30T17:27:31.549Z,0.30
2023-04-30T17:30:37.270Z,0.28
2023-04-30T17:33:07.475Z,0.20
2023-04-30T17:36:52.558Z,0.20
2023-04-30T17:39:19.688Z,0.15
2023-04-30T17:42:12.977Z,0.10
2023-04-30T17:44:49.115Z,0.20
2023-04-30T17:47:27.790Z,0.10
2023-04-30T17:49:59.615Z,0.10
2023-04-30T17:59:07.598Z,0.32
2023-04-30T18:01:42.361Z,0.10
2023-04-30T18:04:26.320Z,0.28
2023-04-30T18:07:20.637Z,0.20
2023-04-30T18:10:00.526Z,0.20
2023-04-30T18:12:31.060Z,0.20
2023-04-30T18:14:59.580Z,0.10
2023-04-30T18:17:29.382Z,0.20
2023-04-30T18:19:58.984Z,0.20
2023-04-30T18:22:31.162Z,0.20
2023-04-30T18:25:42.420Z,0.10
2023-04-30T18:28:36.784Z,0.30
2023-04-30T18:31:09.577Z,0.20
2023-04-30T18:33:41.223Z,0.40
2023-04-30T18:36:08.617Z,0.20
2023-04-30T18:38:39.035Z,0.13
2023-04-30T18:41:09.723Z,0.30
2023-04-30T18:43:40.906Z,0.20
2023-04-30T18:46:09.581Z,0.20
2023-04-30T18:48:39.778Z,0.15
2023-04-30T18:51:20.412Z,0.28
2023-04-30T18:53:50.785Z,0.30
2023-04-30T18:56:21.178Z,0.30
2023-04-30T18:59:01.418Z,0.20
2023-04-30T19:06:40.090Z,0.30
2023-04-30T19:09:38.800Z,0.40
2023-04-30T19:12:12.708Z,0.22
2023-04-30T19:14:48.204Z,0.25
2023-04-30T19:17:22.468Z,0.30
2023-04-30T19:19:50.415Z,0.40
2023-04-30T19:22:31.600Z,0.30
2023-04-30T19:25:02.057Z,0.20
2023-04-30T19:27:32.239Z,0.20
2023-04-30T19:30:02.811Z,0.63
2023-04-30T19:33:03.897Z,0.20
2023-04-30T19:35:31.870Z,0.30
2023-04-30T19:41:12.939Z,0.20
2023-04-30T19:43:40.947Z,0.40
2023-04-30T19:46:08.201Z,0.30
2023-04-30T19:48:39.910Z,0.30
2023-04-30T19:51:09.390Z,0.20
2023-04-30T19:53:36.669Z,0.30
2023-04-30T19:56:03.840Z,0.30
2023-04-30T19:58:38.208Z,0.32
2023-04-30T20:01:18.393Z,0.50
2023-04-30T20:03:45.776Z,0.30
2023-04-30T20:06:25.934Z,0.30
2023-04-30T20:09:49.781Z,0.43
2023-04-30T20:12:20.665Z,0.60
2023-04-30T20:15:01.010Z,0.30
2023-04-30T20:17:50.862Z,0.30
2023-04-30T20:20:39.520Z,0.30
2023-04-30T20:23:20.473Z,0.28
2023-04-30T20:25:50.388Z,0.30
2023-04-30T20:28:20.560Z,0.30
2023-04-30T20:30:50.582Z,0.20
2023-04-30T20:33:20.029Z,0.30
2023-04-30T20:35:50.128Z,0.40
2023-04-30T20:38:21.879Z,0.30
2023-04-30T20:40:52.180Z,0.30
2023-04-30T20:43:27.748Z,0.20
2023-04-30T20:46:30.152Z,0.35
2023-04-30T20:49:06.685Z,0.30
2023-04-30T20:51:34.223Z,0.30
2023-04-30T20:54:15.149Z,0.30
2023-04-30T20:56:45.118Z,0.20
2023-04-30T20:59:17.855Z,0.28
2023-04-30T21:01:44.941Z,0.20
2023-04-30T21:04:11.982Z,0.35
2023-04-30T21:06:43.098Z,0.30
2023-04-30T21:09:12.780Z,0.40
2023-04-30T21:11:40.531Z,0.30
2023-04-30T21:14:40.434Z,0.40
2023-04-30T21:17:10.863Z,0.30
2023-04-30T21:19:41.547Z,0.77
2023-04-30T21:22:08.737Z,0.38
2023-04-30T21:24:35.889Z,0.43
2023-04-30T21:27:04.331Z,0.30
2023-04-30T21:29:42.894Z,0.43
2023-04-30T21:32:16.569Z,0.47
2023-04-30T21:34:50.444Z,0.30
2023-04-30T21:38:01.958Z,0.40
2023-04-30T21:44:49.067Z,0.35
2023-04-30T21:47:33.490Z,0.30
2023-04-30T21:50:03.389Z,0.82
2023-04-30T21:53:06.981Z,0.25
2023-04-30T22:00:01.563Z,0.20
2023-04-30T22:02:32.826Z,0.30
2023-04-30T22:05:00.025Z,0.40
2023-04-30T22:07:30.025Z,0.70
2023-04-30T22:09:58.599Z,0.40
2023-04-30T22:12:25.838Z,0.40
2023-04-30T22:14:53.698Z,0.52
2023-04-30T22:17:21.196Z,0.30
2023-04-30T22:19:48.479Z,0.30
2023-04-30T22:22:15.824Z,0.30
2023-04-30T22:24:43.411Z,0.52
2023-04-30T22:27:24.262Z,0.40
2023-04-30T22:29:56.604Z,0.38
2023-04-30T22:37:31.284Z,0.40
2023-04-30T22:40:03.763Z,0.40
2023-04-30T22:42:31.465Z,0.45
2023-04-30T22:45:01.649Z,0.40
2023-04-30T22:47:34.745Z,0.40
2023-04-30T22:50:05.200Z,0.50
2023-04-30T22:52:35.198Z,0.82
2023-04-30T22:55:03.267Z,0.40
2023-04-30T22:57:30.498Z,0.57
2023-04-30T22:59:58.096Z,0.30
2023-04-30T23:02:26.426Z,0.40
2023-04-30T23:04:53.753Z,0.30
2023-04-30T23:07:20.801Z,0.30
2023-04-30T23:09:47.737Z,0.50
2023-04-30T23:12:14.988Z,0.40
2023-04-30T23:14:42.603Z,0.32
2023-04-30T23:19:50.763Z,0.20
2023-04-30T23:22:17.934Z,0.40
2023-04-30T23:24:48.145Z,0.50
2023-04-30T23:27:15.538Z,0.60
2023-04-30T23:29:42.994Z,0.50
2023-04-30T23:32:10.256Z,0.30
2023-04-30T23:34:37.520Z,0.32
2023-04-30T23:37:04.618Z,0.30
2023-04-30T23:39:32.487Z,0.32
2023-04-30T23:41:59.781Z,0.30
2023-04-30T23:44:26.931Z,0.30
2023-04-30T23:46:56.021Z,0.40
2023-04-30T23:49:25.056Z,0.35
2023-04-30T23:51:52.323Z,0.30
2023-04-30T23:54:19.521Z,0.40
2023-04-30T23:56:46.698Z,0.30
2023-04-30T23:59:17.143Z,0.22
